createdAt,value
2023-05-09T00:01:12.911Z,78.72
2023-05-09T00:03:40.259Z,79.66
2023-05-09T00:06:07.871Z,80.76
2023-05-09T00:08:34.889Z,79.08
2023-05-09T00:11:02.434Z,79.55
2023-05-09T00:13:29.152Z,78.72
2023-05-09T00:15:57.427Z,79.80
2023-05-09T00:18:24.354Z,79.76
2023-05-09T00:20:51.122Z,79.73
2023-05-09T00:23:18.130Z,80.32
2023-05-09T00:25:44.877Z,79.82
2023-05-09T00:28:11.700Z,78.79
2023-05-09T00:30:38.461Z,79.71
2023-05-09T00:33:05.311Z,79.21
2023-05-09T00:35:32.647Z,78.81
2023-05-09T00:37:59.543Z,77.91
2023-05-09T00:40:26.427Z,77.36
2023-05-09T00:42:53.151Z,77.75
2023-05-09T00:45:19.893Z,77.42
2023-05-09T00:47:46.739Z,76.14
2023-05-09T00:50:13.953Z,75.29
2023-05-09T00:52:41.633Z,74.41
2023-05-09T00:55:09.110Z,75.18
2023-05-09T00:57:36.522Z,76.68
2023-05-09T01:00:04.650Z,76.97
2023-05-09T01:02:32.376Z,76.44
2023-05-09T01:04:59.586Z,76.16
2023-05-09T01:07:35.997Z,77.64
2023-05-09T01:10:14.028Z,77.48
2023-05-09T01:12:54.705Z,78.16
2023-05-09T01:15:38.003Z,76.78
2023-05-09T01:18:30.010Z,76.70
2023-05-09T01:21:01.930Z,76.25
2023-05-09T01:23:46.845Z,77.12
2023-05-09T01:26:42.368Z,77.75
2023-05-09T01:29:24.326Z,76.50
2023-05-09T01:31:53.526Z,75.87
2023-05-09T01:34:24.554Z,76.13
2023-05-09T01:36:52.103Z,76.16
2023-05-09T01:39:21.055Z,76.14
2023-05-09T01:41:49.787Z,77.09
2023-05-09T01:44:17.536Z,76.14
2023-05-09T01:46:44.882Z,76.30
2023-05-09T01:49:12.249Z,77.27
2023-05-09T01:51:40.805Z,77.18
2023-05-09T01:54:11.127Z,77.36
2023-05-09T01:56:39.184Z,76.17
2023-05-09T01:59:07.592Z,77.35
2023-05-09T02:01:35.505Z,77.11
2023-05-09T02:04:05.283Z,76.14
2023-05-09T02:06:32.802Z,76.52
2023-05-09T02:09:00.193Z,77.45
2023-05-09T02:11:26.943Z,76.31
2023-05-09T02:13:53.745Z,77.50
2023-05-09T02:16:21.252Z,76.93
2023-05-09T02:18:48.699Z,77.05
2023-05-09T02:21:15.628Z,77.86
2023-05-09T02:23:42.459Z,78.31
2023-05-09T02:26:09.500Z,77.88
2023-05-09T02:28:38.221Z,79.38
2023-05-09T02:31:09.135Z,77.80
2023-05-09T02:33:38.388Z,77.60
2023-05-09T02:36:06.152Z,78.94
2023-05-09T02:38:33.710Z,79.13
2023-05-09T02:41:02.496Z,78.85
2023-05-09T02:43:29.163Z,79.00
2023-05-09T02:45:55.831Z,79.25
2023-05-09T02:48:23.118Z,79.14
2023-05-09T02:50:49.903Z,80.58
2023-05-09T02:53:16.844Z,79.96
2023-05-09T02:55:43.641Z,79.80
2023-05-09T02:58:14.696Z,80.97
2023-05-09T03:00:43.592Z,80.46
2023-05-09T03:03:11.872Z,80.57
2023-05-09T03:05:38.753Z,81.00
2023-05-09T03:08:05.964Z,80.94
2023-05-09T03:10:34.244Z,80.35
2023-05-09T03:13:01.273Z,80.29
2023-05-09T03:15:28.157Z,80.48
2023-05-09T03:17:55.896Z,80.13
2023-05-09T03:20:22.677Z,79.87
2023-05-09T03:22:49.601Z,80.08
2023-05-09T03:25:17.343Z,79.55
2023-05-09T03:27:44.882Z,79.63
2023-05-09T03:30:15.052Z,80.69
2023-05-09T03:32:43.715Z,80.20
2023-05-09T03:35:10.423Z,81.26
2023-05-09T03:37:37.398Z,80.99
2023-05-09T03:40:07.379Z,80.37
2023-05-09T03:42:40.378Z,79.92
2023-05-09T03:45:07.761Z,79.75
2023-05-09T03:47:34.695Z,79.51
2023-05-09T03:50:01.536Z,79.28
2023-05-09T03:52:28.885Z,79.57
2023-05-09T03:54:55.831Z,80.63
2023-05-09T03:57:23.072Z,80.44
2023-05-09T03:59:52.450Z,80.87
2023-05-09T04:02:19.453Z,81.21
2023-05-09T04:04:47.497Z,81.12
2023-05-09T04:07:17.101Z,81.08
2023-05-09T04:09:45.193Z,80.91
2023-05-09T04:12:11.900Z,80.76
2023-05-09T04:14:39.290Z,81.49
2023-05-09T04:17:06.143Z,81.63
2023-05-09T04:19:32.885Z,81.51
2023-05-09T04:21:59.580Z,80.96
2023-05-09T04:24:26.675Z,81.04
2023-05-09T04:26:53.462Z,81.04
2023-05-09T04:29:23.302Z,81.21
2023-05-09T04:31:54.101Z,81.17
2023-05-09T04:34:24.932Z,80.39
2023-05-09T04:36:52.441Z,80.37
2023-05-09T04:39:19.675Z,80.32
2023-05-09T04:41:55.419Z,80.73
2023-05-09T04:44:23.515Z,80.49
2023-05-09T04:46:50.853Z,78.82
2023-05-09T04:49:17.903Z,77.88
2023-05-09T04:51:44.655Z,76.88
2023-05-09T04:54:11.511Z,77.00
2023-05-09T04:56:39.927Z,77.06
2023-05-09T04:59:07.109Z,75.00
2023-05-09T05:01:34.211Z,74.10
2023-05-09T05:04:01.144Z,75.31
2023-05-09T05:06:29.910Z,74.51
2023-05-09T05:08:56.853Z,73.41
2023-05-09T05:11:23.893Z,72.91
2023-05-09T05:13:51.226Z,73.67
2023-05-09T05:16:18.267Z,72.66
2023-05-09T05:18:45.678Z,72.88
2023-05-09T05:21:12.979Z,74.35
2023-05-09T05:23:40.169Z,75.12
2023-05-09T05:26:07.206Z,76.09
2023-05-09T05:28:35.821Z,75.93
2023-05-09T05:31:03.762Z,73.59
2023-05-09T05:33:30.536Z,75.45
2023-05-09T05:35:58.067Z,75.14
2023-05-09T05:38:26.201Z,75.73
2023-05-09T05:40:56.672Z,76.27
2023-05-09T05:43:25.223Z,74.92
2023-05-09T05:45:52.626Z,75.64
2023-05-09T05:48:24.063Z,74.79
2023-05-09T05:50:52.910Z,73.97
2023-05-09T05:53:30.883Z,73.02
2023-05-09T05:56:00.718Z,72.50
2023-05-09T05:58:28.187Z,72.87
2023-05-09T06:00:55.183Z,71.64
2023-05-09T06:03:22.024Z,72.05
2023-05-09T06:05:57.209Z,70.56
2023-05-09T06:08:23.884Z,72.04
2023-05-09T06:10:51.112Z,71.31
2023-05-09T06:13:18.104Z,70.66
2023-05-09T06:15:50.274Z,69.62
2023-05-09T06:18:17.062Z,70.83
2023-05-09T06:20:43.860Z,68.98
2023-05-09T06:23:10.528Z,69.76
2023-05-09T06:25:37.371Z,70.16
2023-05-09T06:28:04.272Z,70.16
2023-05-09T06:30:31.273Z,71.17
2023-05-09T06:32:58.712Z,71.63
2023-05-09T06:35:25.689Z,71.61
2023-05-09T06:37:52.451Z,71.79
2023-05-09T06:40:19.513Z,71.84
2023-05-09T06:42:46.229Z,70.93
2023-05-09T06:45:13.332Z,70.60
2023-05-09T06:47:40.326Z,69.78
2023-05-09T06:50:07.955Z,68.31
2023-05-09T06:52:34.799Z,67.67
2023-05-09T06:55:01.528Z,66.86
2023-05-09T06:57:28.411Z,67.56
2023-05-09T06:59:55.561Z,66.47
2023-05-09T07:02:22.268Z,66.86
2023-05-09T07:04:48.998Z,67.53
2023-05-09T07:07:16.429Z,65.20
2023-05-09T07:09:43.147Z,67.02
2023-05-09T07:12:09.889Z,66.01
2023-05-09T07:14:36.594Z,67.14
2023-05-09T07:17:21.247Z,66.93
2023-05-09T07:19:50.584Z,67.05
2023-05-09T07:22:17.396Z,67.56
2023-05-09T07:24:44.735Z,69.18
2023-05-09T07:27:11.803Z,68.17
2023-05-09T07:29:38.640Z,67.95
2023-05-09T07:32:05.598Z,68.53
2023-05-09T07:34:32.539Z,67.17
2023-05-09T07:36:59.183Z,66.02
2023-05-09T07:39:25.819Z,66.74
2023-05-09T07:41:52.697Z,69.26
2023-05-09T07:44:19.432Z,66.12
2023-05-09T07:46:46.153Z,66.23
2023-05-09T07:49:12.869Z,65.97
2023-05-09T07:51:39.522Z,64.85
2023-05-09T07:54:06.421Z,65.15
2023-05-09T07:56:33.214Z,66.85
2023-05-09T07:58:59.916Z,66.00
2023-05-09T08:01:26.621Z,67.71
2023-05-09T08:03:53.436Z,68.34
2023-05-09T08:06:20.501Z,66.61
2023-05-09T08:08:47.321Z,66.04
2023-05-09T08:11:14.073Z,65.47
2023-05-09T08:13:40.874Z,66.83
2023-05-09T08:16:07.716Z,67.06
2023-05-09T08:18:34.425Z,67.75
2023-05-09T08:21:01.301Z,66.77
2023-05-09T08:23:30.178Z,64.46
2023-05-09T08:25:57.002Z,66.32
2023-05-09T08:28:24.552Z,64.92
2023-05-09T08:30:51.908Z,66.57
2023-05-09T08:33:18.903Z,67.86
2023-05-09T08:35:45.907Z,66.76
2023-05-09T08:38:12.682Z,65.08
2023-05-09T08:40:41.162Z,65.94
2023-05-09T08:43:08.528Z,65.33
2023-05-09T08:45:39.935Z,66.58
2023-05-09T08:48:07.814Z,66.27
2023-05-09T08:50:35.714Z,65.51
2023-05-09T08:53:02.629Z,65.27
2023-05-09T08:55:29.954Z,65.66
2023-05-09T08:57:58.358Z,68.56
2023-05-09T09:00:27.978Z,66.52
2023-05-09T09:02:58.731Z,64.62
2023-05-09T09:05:40.600Z,63.78
2023-05-09T09:08:09.758Z,65.59
2023-05-09T09:10:40.714Z,63.89
2023-05-09T09:13:09.767Z,64.86
2023-05-09T09:15:38.651Z,62.52
2023-05-09T09:18:12.399Z,63.76
2023-05-09T09:20:48.800Z,66.53
2023-05-09T09:23:20.109Z,62.43
2023-05-09T09:25:48.168Z,64.45
2023-05-09T09:28:15.498Z,64.22
2023-05-09T09:30:47.669Z,64.21
2023-05-09T09:33:23.000Z,63.81
2023-05-09T09:35:51.627Z,63.42
2023-05-09T09:38:22.641Z,63.00
2023-05-09T09:40:52.252Z,64.17
2023-05-09T09:43:19.092Z,65.25
2023-05-09T09:45:53.150Z,63.89
2023-05-09T09:48:24.811Z,62.85
2023-05-09T09:50:51.680Z,63.61
2023-05-09T09:53:20.792Z,63.74
2023-05-09T09:55:53.343Z,62.35
2023-05-09T09:58:25.148Z,62.38
2023-05-09T10:01:06.933Z,61.91
2023-05-09T10:03:45.204Z,62.85
2023-05-09T10:06:13.543Z,64.43
2023-05-09T10:08:41.348Z,60.46
2023-05-09T10:11:09.551Z,63.28
2023-05-09T10:13:38.834Z,61.21
2023-05-09T10:16:08.952Z,61.38
2023-05-09T10:18:37.590Z,62.05
2023-05-09T10:21:07.439Z,60.16
2023-05-09T10:23:38.259Z,61.67
2023-05-09T10:26:23.154Z,61.29
2023-05-09T10:28:55.149Z,61.35
2023-05-09T10:31:29.659Z,58.89
2023-05-09T10:33:57.222Z,60.92
2023-05-09T10:36:24.661Z,60.08
2023-05-09T10:38:55.432Z,60.99
2023-05-09T10:41:22.902Z,61.20
2023-05-09T10:43:49.968Z,59.76
2023-05-09T10:46:17.729Z,58.82
2023-05-09T10:48:45.648Z,59.24
2023-05-09T10:51:13.249Z,59.34
2023-05-09T10:53:50.910Z,60.25
2023-05-09T10:56:31.874Z,61.26
2023-05-09T10:59:00.252Z,57.96
2023-05-09T11:01:30.893Z,60.00
2023-05-09T11:04:00.081Z,58.10
2023-05-09T11:06:46.492Z,59.78
2023-05-09T11:09:33.390Z,58.43
2023-05-09T11:12:06.394Z,57.70
2023-05-09T11:14:35.868Z,58.84
2023-05-09T11:17:05.215Z,57.42
2023-05-09T11:19:37.019Z,58.41
2023-05-09T11:22:17.559Z,57.87
2023-05-09T11:24:52.131Z,58.25
2023-05-09T11:27:24.319Z,57.76
2023-05-09T11:29:59.533Z,58.63
2023-05-09T11:32:32.757Z,56.98
2023-05-09T11:35:17.358Z,56.44
2023-05-09T11:37:48.524Z,58.13
2023-05-09T11:40:17.860Z,58.28
2023-05-09T11:42:47.392Z,55.82
2023-05-09T11:45:15.312Z,55.93
2023-05-09T11:47:43.255Z,55.43
2023-05-09T11:50:11.658Z,57.94
2023-05-09T11:52:38.873Z,57.03
2023-05-09T11:55:12.521Z,56.43
2023-05-09T11:57:50.998Z,57.70
2023-05-09T12:00:22.030Z,55.56
2023-05-09T12:02:51.113Z,58.60
2023-05-09T12:05:21.910Z,56.46
2023-05-09T12:07:49.393Z,56.94
2023-05-09T12:10:20.613Z,55.84
2023-05-09T12:12:51.837Z,55.11
2023-05-09T12:15:19.847Z,57.13
2023-05-09T12:17:48.980Z,54.82
2023-05-09T12:20:18.097Z,55.38
2023-05-09T12:22:45.077Z,56.86
2023-05-09T12:25:12.495Z,55.02
2023-05-09T12:27:41.414Z,54.91
2023-05-09T12:30:10.903Z,55.56
2023-05-09T12:32:40.547Z,55.03
2023-05-09T12:35:10.490Z,54.19
2023-05-09T12:37:37.821Z,54.38
2023-05-09T12:40:15.990Z,54.26
2023-05-09T12:42:46.419Z,53.91
2023-05-09T12:45:14.000Z,53.49
2023-05-09T12:47:45.604Z,53.44
2023-05-09T12:50:13.423Z,53.75
2023-05-09T12:52:58.428Z,54.45
2023-05-09T12:55:29.368Z,55.07
2023-05-09T12:58:01.454Z,54.67
2023-05-09T13:00:28.972Z,54.88
2023-05-09T13:02:55.827Z,52.67
2023-05-09T13:05:23.595Z,53.64
2023-05-09T13:07:52.671Z,54.29
2023-05-09T13:10:23.966Z,53.52
2023-05-09T13:12:52.074Z,54.12
2023-05-09T13:15:22.853Z,54.17
2023-05-09T13:17:51.215Z,52.41
2023-05-09T13:20:19.213Z,53.49
2023-05-09T13:22:46.166Z,52.66
2023-05-09T13:25:13.260Z,51.69
2023-05-09T13:27:39.986Z,53.45
2023-05-09T13:30:09.936Z,51.15
2023-05-09T13:32:37.008Z,52.86
2023-05-09T13:35:06.818Z,52.09
2023-05-09T13:37:36.983Z,55.03
2023-05-09T13:40:04.831Z,51.87
2023-05-09T13:42:33.777Z,54.49
2023-05-09T13:45:00.874Z,52.00
2023-05-09T13:47:27.645Z,51.83
2023-05-09T13:49:54.441Z,52.25
2023-05-09T13:52:21.168Z,52.13
2023-05-09T13:54:47.842Z,51.47
2023-05-09T13:57:14.533Z,52.70
2023-05-09T13:59:41.691Z,51.61
2023-05-09T14:02:08.780Z,51.66
2023-05-09T14:04:35.484Z,51.79
2023-05-09T14:07:02.257Z,52.55
2023-05-09T14:09:29.581Z,53.18
2023-05-09T14:11:57.213Z,53.14
2023-05-09T14:14:25.495Z,51.72
2023-05-09T14:16:52.155Z,51.82
2023-05-09T14:19:18.842Z,51.22
2023-05-09T14:21:48.953Z,52.18
2023-05-09T14:24:16.497Z,51.26
2023-05-09T14:26:43.819Z,52.33
2023-05-09T14:29:11.159Z,52.31
2023-05-09T14:31:38.064Z,51.73
2023-05-09T14:34:05.555Z,51.79
2023-05-09T14:36:32.986Z,53.10
2023-05-09T14:38:59.752Z,51.35
2023-05-09T14:41:26.891Z,51.98
2023-05-09T14:43:53.597Z,51.29
2023-05-09T14:46:20.646Z,53.03
2023-05-09T14:48:47.393Z,51.39
2023-05-09T14:51:14.362Z,51.72
2023-05-09T14:53:42.195Z,51.36
2023-05-09T14:56:11.476Z,52.22
2023-05-09T14:58:38.291Z,52.35
2023-05-09T15:01:05.651Z,53.01
2023-05-09T15:03:32.729Z,52.69
2023-05-09T15:05:59.773Z,51.43
2023-05-09T15:08:27.025Z,52.12
2023-05-09T15:10:53.935Z,52.17
2023-05-09T15:13:21.090Z,51.50
2023-05-09T15:15:47.968Z,52.96
2023-05-09T15:18:18.538Z,51.49
2023-05-09T15:20:45.602Z,51.64
2023-05-09T15:23:13.206Z,50.80
2023-05-09T15:25:41.826Z,51.20
2023-05-09T15:28:08.767Z,50.47
2023-05-09T15:30:38.290Z,51.36
2023-05-09T15:33:05.324Z,51.36
2023-05-09T15:35:32.307Z,50.50
2023-05-09T15:37:59.524Z,51.96
2023-05-09T15:40:26.489Z,52.03
2023-05-09T15:42:53.214Z,51.28
2023-05-09T15:45:19.993Z,51.01
2023-05-09T15:47:46.764Z,50.97
2023-05-09T15:50:14.241Z,51.45
2023-05-09T15:52:41.443Z,53.22
2023-05-09T15:55:09.446Z,51.45
2023-05-09T15:57:36.580Z,51.37
2023-05-09T16:00:05.585Z,50.50
2023-05-09T16:02:39.330Z,51.75
2023-05-09T16:05:06.657Z,51.94
2023-05-09T16:07:35.314Z,52.03
2023-05-09T16:10:02.779Z,51.62
2023-05-09T16:12:32.701Z,50.84
2023-05-09T16:15:00.670Z,50.75
2023-05-09T16:17:28.055Z,52.33
2023-05-09T16:19:55.662Z,51.62
2023-05-09T16:22:22.703Z,51.80
2023-05-09T16:24:49.440Z,52.77
2023-05-09T16:27:17.041Z,51.97
2023-05-09T16:29:44.079Z,52.10
2023-05-09T16:32:11.220Z,51.52
2023-05-09T16:34:37.963Z,51.55
2023-05-09T16:37:04.851Z,52.16
2023-05-09T16:39:32.706Z,52.63
2023-05-09T16:42:00.214Z,53.05
2023-05-09T16:44:27.408Z,52.75
2023-05-09T16:46:54.253Z,53.56
2023-05-09T16:49:21.098Z,53.97
2023-05-09T16:51:47.856Z,54.42
2023-05-09T16:54:14.800Z,53.47
2023-05-09T16:56:42.272Z,53.46
2023-05-09T16:59:08.959Z,53.19
2023-05-09T17:01:35.685Z,53.22
2023-05-09T17:04:02.503Z,53.91
2023-05-09T17:06:29.319Z,53.44
2023-05-09T17:08:56.243Z,53.63
2023-05-09T17:11:23.251Z,53.27
2023-05-09T17:13:50.033Z,52.16
2023-05-09T17:16:16.827Z,53.58
2023-05-09T17:18:47.474Z,53.08
2023-05-09T17:21:15.683Z,52.79
2023-05-09T17:23:42.833Z,53.96
2023-05-09T17:26:09.583Z,54.25
2023-05-09T17:28:37.060Z,53.89
2023-05-09T17:31:03.965Z,54.95
2023-05-09T17:33:30.712Z,54.69
2023-05-09T17:35:57.511Z,55.11
2023-05-09T17:38:24.218Z,55.73
2023-05-09T17:40:50.931Z,55.85
2023-05-09T17:43:21.907Z,56.30
2023-05-09T17:45:48.716Z,55.78
2023-05-09T17:48:15.973Z,56.04
2023-05-09T17:50:43.936Z,57.15
2023-05-09T17:53:10.696Z,57.34
2023-05-09T17:55:37.464Z,56.09
2023-05-09T17:58:04.153Z,56.84
2023-05-09T18:00:31.051Z,57.53
2023-05-09T18:03:00.655Z,57.57
2023-05-09T18:05:27.901Z,58.64
2023-05-09T18:07:54.627Z,58.18
2023-05-09T18:10:21.594Z,58.78
2023-05-09T18:12:48.436Z,58.27
2023-05-09T18:15:15.449Z,59.76
2023-05-09T18:17:42.329Z,59.46
2023-05-09T18:20:09.525Z,59.22
2023-05-09T18:22:37.394Z,59.69
2023-05-09T18:25:04.331Z,60.68
2023-05-09T18:27:31.222Z,60.61
2023-05-09T18:29:57.923Z,60.74
2023-05-09T18:32:25.200Z,60.39
2023-05-09T18:34:52.725Z,60.83
2023-05-09T18:37:19.904Z,61.87
2023-05-09T18:39:47.801Z,61.98
2023-05-09T18:42:16.314Z,62.51
2023-05-09T18:44:43.456Z,62.94
2023-05-09T18:47:10.327Z,62.20
2023-05-09T18:49:37.959Z,62.98
2023-05-09T18:52:04.897Z,63.28
2023-05-09T18:54:31.609Z,63.53
2023-05-09T18:56:58.554Z,63.69
2023-05-09T18:59:25.356Z,63.86
2023-05-09T19:01:52.228Z,64.29
2023-05-09T19:04:19.905Z,65.00
2023-05-09T19:06:46.916Z,65.05
2023-05-09T19:09:13.660Z,65.45
2023-05-09T19:11:40.492Z,66.46
2023-05-09T19:14:07.265Z,66.69
2023-05-09T19:16:34.113Z,67.08
2023-05-09T19:19:01.002Z,67.01
2023-05-09T19:21:28.393Z,66.29
2023-05-09T19:23:55.031Z,66.92
2023-05-09T19:26:22.193Z,66.55
2023-05-09T19:28:49.006Z,66.32
2023-05-09T19:31:16.354Z,68.67
2023-05-09T19:33:45.826Z,69.19
2023-05-09T19:36:12.999Z,69.62
2023-05-09T19:38:40.123Z,69.80
2023-05-09T19:41:07.155Z,70.80
2023-05-09T19:43:34.114Z,71.49
2023-05-09T19:46:01.720Z,70.56
2023-05-09T19:48:28.709Z,71.26
2023-05-09T19:51:01.033Z,71.50
2023-05-09T19:53:28.428Z,72.16
2023-05-09T19:55:56.226Z,71.28
2023-05-09T19:58:23.763Z,73.28
2023-05-09T20:00:50.961Z,73.42
2023-05-09T20:03:18.800Z,73.48
2023-05-09T20:05:46.241Z,73.46
2023-05-09T20:08:13.584Z,73.25
2023-05-09T20:10:40.902Z,72.76
2023-05-09T20:13:08.454Z,73.96
2023-05-09T20:15:36.616Z,74.19
2023-05-09T20:18:04.948Z,74.42
2023-05-09T20:20:32.394Z,74.45
2023-05-09T20:23:00.003Z,73.85
2023-05-09T20:25:27.355Z,73.21
2023-05-09T20:27:54.980Z,72.82
2023-05-09T20:30:22.106Z,73.51
2023-05-09T20:32:48.913Z,73.14
2023-05-09T20:35:15.870Z,73.29
2023-05-09T20:37:43.117Z,73.99
2023-05-09T20:40:10.276Z,74.23
2023-05-09T20:42:37.854Z,73.80
2023-05-09T20:45:08.419Z,74.02
2023-05-09T20:47:36.217Z,74.16
2023-05-09T20:50:07.356Z,74.02
2023-05-09T20:52:34.582Z,75.05
2023-05-09T20:55:02.328Z,75.10
2023-05-09T20:57:29.054Z,76.05
2023-05-09T20:59:55.767Z,75.18
2023-05-09T21:02:22.501Z,75.98
2023-05-09T21:04:52.082Z,77.68
2023-05-09T21:07:19.581Z,77.42
2023-05-09T21:09:47.585Z,76.75
2023-05-09T21:12:14.339Z,76.23
2023-05-09T21:14:41.144Z,78.07
2023-05-09T21:17:08.037Z,79.44
2023-05-09T21:19:35.944Z,78.67
2023-05-09T21:22:06.142Z,77.92
2023-05-09T21:24:33.391Z,78.07
2023-05-09T21:27:00.317Z,78.22
2023-05-09T21:29:26.981Z,79.11
2023-05-09T21:31:53.784Z,78.39
2023-05-09T21:34:23.955Z,78.35
2023-05-09T21:36:50.707Z,78.11
2023-05-09T21:39:17.772Z,78.64
2023-05-09T21:41:44.562Z,78.31
2023-05-09T21:44:12.199Z,78.78
2023-05-09T21:46:39.577Z,78.88
2023-05-09T21:49:06.663Z,77.49
2023-05-09T21:51:34.862Z,78.43
2023-05-09T21:54:02.241Z,79.57
2023-05-09T21:56:29.352Z,78.78
2023-05-09T21:58:56.096Z,79.04
2023-05-09T22:01:22.805Z,77.56
2023-05-09T22:03:49.579Z,78.43
2023-05-09T22:06:16.359Z,78.32
2023-05-09T22:08:43.201Z,79.66
2023-05-09T22:11:10.434Z,78.80
2023-05-09T22:13:38.563Z,79.04
2023-05-09T22:16:06.369Z,79.58
2023-05-09T22:18:33.374Z,81.75
2023-05-09T22:21:00.630Z,80.40
2023-05-09T22:23:27.504Z,80.06
2023-05-09T22:25:54.252Z,79.23
2023-05-09T22:28:20.927Z,79.56
2023-05-09T22:30:47.641Z,81.32
2023-05-09T22:33:14.398Z,81.48
2023-05-09T22:35:41.153Z,80.02
2023-05-09T22:38:07.844Z,80.47
2023-05-09T22:40:34.643Z,80.11
2023-05-09T22:43:01.394Z,79.44
2023-05-09T22:45:28.184Z,80.08
2023-05-09T22:47:55.516Z,80.20
2023-05-09T22:50:22.489Z,81.54
2023-05-09T22:52:49.227Z,79.96
2023-05-09T22:55:16.061Z,80.30
2023-05-09T22:57:42.846Z,79.33
2023-05-09T23:00:10.317Z,81.54
2023-05-09T23:02:37.652Z,80.54
2023-05-09T23:05:04.754Z,80.16
2023-05-09T23:07:31.445Z,81.21
2023-05-09T23:09:58.224Z,80.73
2023-05-09T23:12:24.957Z,80.97
2023-05-09T23:14:51.645Z,80.64
2023-05-09T23:17:18.856Z,80.53
2023-05-09T23:19:46.327Z,80.95
2023-05-09T23:22:13.678Z,81.70
2023-05-09T23:24:44.493Z,81.43
2023-05-09T23:27:13.643Z,81.67
2023-05-09T23:29:55.746Z,83.07
2023-05-09T23:32:26.225Z,82.04
2023-05-09T23:34:53.916Z,81.77
2023-05-09T23:37:21.561Z,82.32
2023-05-09T23:39:49.607Z,81.96
2023-05-09T23:42:19.305Z,81.61
2023-05-09T23:44:49.114Z,80.99
2023-05-09T23:47:17.044Z,83.01
2023-05-09T23:49:44.222Z,82.34
2023-05-09T23:52:11.913Z,82.86
2023-05-09T23:54:39.853Z,83.36
2023-05-09T23:57:08.912Z,83.10
2023-05-09T23:59:36.037Z,82.94
